sensor_id;sensor_type;location;lat;lon;timestamp;P1;durP1;ratioP1;P2;durP2;ratioP2
63110;SDS011;49201;53.426;10.300;2023-03-03T00:01:31;41.93;;;22.90;;
63110;SDS011;49201;53.426;10.300;2023-03-03T00:03:57;40.77;;;23.13;;
63110;SDS011;49201;53.426;10.300;2023-03-03T00:06:23;35.07;;;21.93;;
63110;SDS011;49201;53.426;10.300;2023-03-03T00:08:49;42.57;;;23.73;;
63110;SDS011;49201;53.426;10.300;2023-03-03T00:11:15;41.70;;;22.93;;
63110;SDS011;49201;53.426;10.300;2023-03-03T00:13:45;44.57;;;23.87;;
63110;SDS011;49201;53.426;10.300;2023-03-03T00:19:01;46.53;;;24.77;;
63110;SDS011;49201;53.426;10.300;2023-03-03T00:21:28;51.60;;;27.60;;
63110;SDS011;49201;53.426;10.300;2023-03-03T00:27:00;64.97;;;30.43;;
63110;SDS011;49201;53.426;10.300;2023-03-03T00:29:37;68.27;;;33.70;;
63110;SDS011;49201;53.426;10.300;2023-03-03T00:34:41;64.37;;;31.83;;
63110;SDS011;49201;53.426;10.300;2023-03-03T00:37:25;64.73;;;31.97;;
63110;SDS011;49201;53.426;10.300;2023-03-03T00:39:57;66.30;;;30.80;;
63110;SDS011;49201;53.426;10.300;2023-03-03T00:42:33;61.03;;;31.17;;
63110;SDS011;49201;53.426;10.300;2023-03-03T00:45:00;57.63;;;29.87;;
63110;SDS011;49201;53.426;10.300;2023-03-03T00:52:30;67.07;;;31.17;;
63110;SDS011;49201;53.426;10.300;2023-03-03T00:55:00;66.27;;;30.80;;
63110;SDS011;49201;53.426;10.300;2023-03-03T00:57:26;63.73;;;30.40;;
63110;SDS011;49201;53.426;10.300;2023-03-03T00:59:52;68.20;;;32.10;;
63110;SDS011;49201;53.426;10.300;2023-03-03T01:02:17;64.73;;;30.37;;
63110;SDS011;49201;53.426;10.300;2023-03-03T01:04:43;72.47;;;32.30;;
63110;SDS011;49201;53.426;10.300;2023-03-03T01:07:14;66.47;;;30.43;;
63110;SDS011;49201;53.426;10.300;2023-03-03T01:09:39;67.30;;;31.83;;
63110;SDS011;49201;53.426;10.300;2023-03-03T01:12:05;67.37;;;31.43;;
63110;SDS011;49201;53.426;10.300;2023-03-03T01:14:31;65.33;;;31.33;;
63110;SDS011;49201;53.426;10.300;2023-03-03T01:16:57;68.37;;;32.20;;
63110;SDS011;49201;53.426;10.300;2023-03-03T01:19:23;69.37;;;31.97;;
63110;SDS011;49201;53.426;10.300;2023-03-03T01:21:49;73.43;;;31.63;;
63110;SDS011;49201;53.426;10.300;2023-03-03T01:24:15;84.43;;;34.40;;
63110;SDS011;49201;53.426;10.300;2023-03-03T01:26:41;89.77;;;34.83;;
63110;SDS011;49201;53.426;10.300;2023-03-03T01:29:07;90.63;;;35.73;;
63110;SDS011;49201;53.426;10.300;2023-03-03T01:31:33;94.60;;;36.60;;
63110;SDS011;49201;53.426;10.300;2023-03-03T01:33:58;92.60;;;37.87;;
63110;SDS011;49201;53.426;10.300;2023-03-03T01:36:24;109.13;;;39.63;;
63110;SDS011;49201;53.426;10.300;2023-03-03T01:38:52;106.90;;;38.03;;
63110;SDS011;49201;53.426;10.300;2023-03-03T01:41:18;105.47;;;40.13;;
63110;SDS011;49201;53.426;10.300;2023-03-03T01:43:45;118.10;;;41.53;;
63110;SDS011;49201;53.426;10.300;2023-03-03T01:46:25;117.27;;;41.03;;
63110;SDS011;49201;53.426;10.300;2023-03-03T01:49:01;118.10;;;40.30;;
63110;SDS011;49201;53.426;10.300;2023-03-03T01:51:31;131.47;;;43.10;;
63110;SDS011;49201;53.426;10.300;2023-03-03T01:54:00;133.57;;;41.53;;
63110;SDS011;49201;53.426;10.300;2023-03-03T01:56:28;121.10;;;42.30;;
63110;SDS011;49201;53.426;10.300;2023-03-03T01:59:09;130.50;;;44.27;;
63110;SDS011;49201;53.426;10.300;2023-03-03T02:01:38;131.73;;;44.90;;
63110;SDS011;49201;53.426;10.300;2023-03-03T02:04:05;139.17;;;43.90;;
63110;SDS011;49201;53.426;10.300;2023-03-03T02:06:35;140.20;;;46.67;;
63110;SDS011;49201;53.426;10.300;2023-03-03T02:11:43;134.37;;;46.23;;
63110;SDS011;49201;53.426;10.300;2023-03-03T02:14:10;141.43;;;45.97;;
63110;SDS011;49201;53.426;10.300;2023-03-03T02:16:41;145.83;;;46.67;;
63110;SDS011;49201;53.426;10.300;2023-03-03T02:19:08;160.00;;;45.20;;
63110;SDS011;49201;53.426;10.300;2023-03-03T02:21:42;140.67;;;44.47;;
63110;SDS011;49201;53.426;10.300;2023-03-03T02:24:15;138.00;;;43.03;;
63110;SDS011;49201;53.426;10.300;2023-03-03T02:26:49;129.30;;;43.00;;
63110;SDS011;49201;53.426;10.300;2023-03-03T02:29:15;154.30;;;43.60;;
63110;SDS011;49201;53.426;10.300;2023-03-03T02:31:40;134.63;;;43.73;;
63110;SDS011;49201;53.426;10.300;2023-03-03T02:34:07;131.17;;;44.03;;
63110;SDS011;49201;53.426;10.300;2023-03-03T02:36:34;152.63;;;45.67;;
63110;SDS011;49201;53.426;10.300;2023-03-03T02:39:22;155.17;;;44.33;;
63110;SDS011;49201;53.426;10.300;2023-03-03T02:41:54;140.73;;;42.30;;
63110;SDS011;49201;53.426;10.300;2023-03-03T02:44:29;131.73;;;40.80;;
63110;SDS011;49201;53.426;10.300;2023-03-03T02:46:56;147.10;;;40.90;;
63110;SDS011;49201;53.426;10.300;2023-03-03T02:49:24;115.57;;;39.47;;
63110;SDS011;49201;53.426;10.300;2023-03-03T02:51:51;134.93;;;40.43;;
63110;SDS011;49201;53.426;10.300;2023-03-03T02:54:19;120.23;;;40.57;;
63110;SDS011;49201;53.426;10.300;2023-03-03T02:56:45;117.07;;;39.47;;
63110;SDS011;49201;53.426;10.300;2023-03-03T02:59:11;117.13;;;39.00;;
63110;SDS011;49201;53.426;10.300;2023-03-03T03:01:42;142.87;;;41.27;;
63110;SDS011;49201;53.426;10.300;2023-03-03T03:04:13;129.00;;;40.67;;
63110;SDS011;49201;53.426;10.300;2023-03-03T03:06:43;134.47;;;39.93;;
63110;SDS011;49201;53.426;10.300;2023-03-03T03:09:11;125.97;;;41.97;;
63110;SDS011;49201;53.426;10.300;2023-03-03T03:11:38;127.03;;;42.23;;
63110;SDS011;49201;53.426;10.300;2023-03-03T03:14:05;126.07;;;40.93;;
63110;SDS011;49201;53.426;10.300;2023-03-03T03:16:32;129.17;;;41.93;;
63110;SDS011;49201;53.426;10.300;2023-03-03T03:18:59;134.37;;;38.83;;
63110;SDS011;49201;53.426;10.300;2023-03-03T03:21:27;133.57;;;39.63;;
63110;SDS011;49201;53.426;10.300;2023-03-03T03:23:52;127.40;;;40.83;;
63110;SDS011;49201;53.426;10.300;2023-03-03T03:26:19;153.43;;;39.37;;
63110;SDS011;49201;53.426;10.300;2023-03-03T03:28:47;137.50;;;41.10;;
63110;SDS011;49201;53.426;10.300;2023-03-03T03:31:13;132.10;;;40.03;;
63110;SDS011;49201;53.426;10.300;2023-03-03T03:33:39;124.53;;;39.40;;
63110;SDS011;49201;53.426;10.300;2023-03-03T03:36:05;128.27;;;39.63;;
63110;SDS011;49201;53.426;10.300;2023-03-03T03:38:32;132.07;;;40.47;;
63110;SDS011;49201;53.426;10.300;2023-03-03T03:40:58;142.07;;;39.93;;
63110;SDS011;49201;53.426;10.300;2023-03-03T03:43:25;115.90;;;41.23;;
63110;SDS011;49201;53.426;10.300;2023-03-03T03:45:51;148.67;;;41.73;;
63110;SDS011;49201;53.426;10.300;2023-03-03T03:48:17;135.83;;;41.03;;
63110;SDS011;49201;53.426;10.300;2023-03-03T03:50:48;127.90;;;41.97;;
63110;SDS011;49201;53.426;10.300;2023-03-03T03:53:15;133.17;;;41.87;;
63110;SDS011;49201;53.426;10.300;2023-03-03T03:55:41;161.17;;;41.73;;
63110;SDS011;49201;53.426;10.300;2023-03-03T03:58:08;118.53;;;40.87;;
63110;SDS011;49201;53.426;10.300;2023-03-03T04:00:38;127.27;;;42.60;;
63110;SDS011;49201;53.426;10.300;2023-03-03T04:03:05;127.77;;;42.47;;
63110;SDS011;49201;53.426;10.300;2023-03-03T04:05:30;139.37;;;41.97;;
63110;SDS011;49201;53.426;10.300;2023-03-03T04:07:56;128.37;;;39.13;;
63110;SDS011;49201;53.426;10.300;2023-03-03T04:10:21;150.30;;;43.20;;
63110;SDS011;49201;53.426;10.300;2023-03-03T04:12:47;140.77;;;42.60;;
63110;SDS011;49201;53.426;10.300;2023-03-03T04:15:13;125.40;;;41.57;;
63110;SDS011;49201;53.426;10.300;2023-03-03T04:17:40;166.27;;;42.73;;
63110;SDS011;49201;53.426;10.300;2023-03-03T04:20:06;152.17;;;43.03;;
63110;SDS011;49201;53.426;10.300;2023-03-03T04:22:35;136.40;;;41.50;;
63110;SDS011;49201;53.426;10.300;2023-03-03T04:25:04;154.90;;;41.43;;
63110;SDS011;49201;53.426;10.300;2023-03-03T04:27:35;148.10;;;42.93;;
63110;SDS011;49201;53.426;10.300;2023-03-03T04:30:04;128.53;;;40.90;;
63110;SDS011;49201;53.426;10.300;2023-03-03T04:32:30;131.40;;;39.83;;
63110;SDS011;49201;53.426;10.300;2023-03-03T04:34:59;127.20;;;39.40;;
63110;SDS011;49201;53.426;10.300;2023-03-03T04:37:25;121.23;;;40.23;;
63110;SDS011;49201;53.426;10.300;2023-03-03T04:39:50;121.40;;;40.03;;
63110;SDS011;49201;53.426;10.300;2023-03-03T04:42:16;131.20;;;41.50;;
63110;SDS011;49201;53.426;10.300;2023-03-03T04:44:42;131.73;;;41.83;;
63110;SDS011;49201;53.426;10.300;2023-03-03T04:47:08;129.40;;;42.37;;
63110;SDS011;49201;53.426;10.300;2023-03-03T04:49:34;119.57;;;38.10;;
63110;SDS011;49201;53.426;10.300;2023-03-03T04:52:00;121.70;;;40.40;;
63110;SDS011;49201;53.426;10.300;2023-03-03T04:54:25;123.27;;;41.47;;
63110;SDS011;49201;53.426;10.300;2023-03-03T04:56:51;117.00;;;40.97;;
63110;SDS011;49201;53.426;10.300;2023-03-03T04:59:16;115.23;;;41.13;;
63110;SDS011;49201;53.426;10.300;2023-03-03T05:01:42;113.47;;;40.10;;
63110;SDS011;49201;53.426;10.300;2023-03-03T05:04:08;124.27;;;41.10;;
63110;SDS011;49201;53.426;10.300;2023-03-03T05:06:33;121.67;;;41.90;;
63110;SDS011;49201;53.426;10.300;2023-03-03T05:08:59;109.63;;;39.50;;
63110;SDS011;49201;53.426;10.300;2023-03-03T05:11:24;101.57;;;37.87;;
63110;SDS011;49201;53.426;10.300;2023-03-03T05:13:50;98.17;;;37.93;;
63110;SDS011;49201;53.426;10.300;2023-03-03T05:16:16;110.33;;;38.50;;
63110;SDS011;49201;53.426;10.300;2023-03-03T05:18:41;110.97;;;39.17;;
63110;SDS011;49201;53.426;10.300;2023-03-03T05:21:07;106.03;;;38.50;;
63110;SDS011;49201;53.426;10.300;2023-03-03T05:23:32;118.40;;;39.27;;
63110;SDS011;49201;53.426;10.300;2023-03-03T05:25:57;109.50;;;38.93;;
63110;SDS011;49201;53.426;10.300;2023-03-03T05:28:23;102.03;;;38.10;;
63110;SDS011;49201;53.426;10.300;2023-03-03T05:30:49;107.30;;;38.37;;
63110;SDS011;49201;53.426;10.300;2023-03-03T05:33:14;115.13;;;37.03;;
63110;SDS011;49201;53.426;10.300;2023-03-03T05:35:41;101.43;;;37.93;;
63110;SDS011;49201;53.426;10.300;2023-03-03T05:38:07;103.40;;;37.20;;
63110;SDS011;49201;53.426;10.300;2023-03-03T05:40:32;98.97;;;36.47;;
63110;SDS011;49201;53.426;10.300;2023-03-03T05:42:58;100.20;;;35.97;;
63110;SDS011;49201;53.426;10.300;2023-03-03T05:45:23;99.80;;;37.73;;
63110;SDS011;49201;53.426;10.300;2023-03-03T05:47:49;99.83;;;36.63;;
63110;SDS011;49201;53.426;10.300;2023-03-03T05:50:16;100.37;;;35.43;;
63110;SDS011;49201;53.426;10.300;2023-03-03T05:52:43;105.07;;;38.13;;
63110;SDS011;49201;53.426;10.300;2023-03-03T05:55:08;97.97;;;38.50;;
63110;SDS011;49201;53.426;10.300;2023-03-03T05:57:35;100.93;;;39.37;;
63110;SDS011;49201;53.426;10.300;2023-03-03T06:00:01;104.83;;;37.53;;
63110;SDS011;49201;53.426;10.300;2023-03-03T06:02:37;101.20;;;37.57;;
63110;SDS011;49201;53.426;10.300;2023-03-03T06:05:03;104.63;;;38.53;;
63110;SDS011;49201;53.426;10.300;2023-03-03T06:07:29;103.50;;;38.27;;
63110;SDS011;49201;53.426;10.300;2023-03-03T06:09:54;92.67;;;36.77;;
63110;SDS011;49201;53.426;10.300;2023-03-03T06:12:20;95.47;;;37.40;;
63110;SDS011;49201;53.426;10.300;2023-03-03T06:14:46;97.83;;;37.47;;
63110;SDS011;49201;53.426;10.300;2023-03-03T06:17:11;95.77;;;37.10;;
63110;SDS011;49201;53.426;10.300;2023-03-03T06:19:37;104.67;;;38.10;;
63110;SDS011;49201;53.426;10.300;2023-03-03T06:22:02;93.10;;;34.90;;
63110;SDS011;49201;53.426;10.300;2023-03-03T06:24:28;95.30;;;36.20;;
63110;SDS011;49201;53.426;10.300;2023-03-03T06:26:58;94.77;;;36.13;;
63110;SDS011;49201;53.426;10.300;2023-03-03T06:29:25;93.17;;;35.73;;
63110;SDS011;49201;53.426;10.300;2023-03-03T06:31:51;98.07;;;37.90;;
63110;SDS011;49201;53.426;10.300;2023-03-03T06:34:17;107.60;;;38.07;;
63110;SDS011;49201;53.426;10.300;2023-03-03T06:36:42;108.07;;;38.67;;
63110;SDS011;49201;53.426;10.300;2023-03-03T06:39:08;95.43;;;36.97;;
63110;SDS011;49201;53.426;10.300;2023-03-03T06:41:33;96.10;;;36.87;;
63110;SDS011;49201;53.426;10.300;2023-03-03T06:43:58;96.30;;;38.87;;
63110;SDS011;49201;53.426;10.300;2023-03-03T06:46:24;100.37;;;37.10;;
63110;SDS011;49201;53.426;10.300;2023-03-03T06:48:51;103.23;;;36.63;;
63110;SDS011;49201;53.426;10.300;2023-03-03T06:51:29;100.03;;;38.03;;
63110;SDS011;49201;53.426;10.300;2023-03-03T06:53:58;99.63;;;39.30;;
63110;SDS011;49201;53.426;10.300;2023-03-03T06:56:26;98.23;;;38.03;;
63110;SDS011;49201;53.426;10.300;2023-03-03T06:58:53;102.47;;;37.97;;
63110;SDS011;49201;53.426;10.300;2023-03-03T07:01:22;97.77;;;36.17;;
63110;SDS011;49201;53.426;10.300;2023-03-03T07:03:48;103.17;;;37.37;;
63110;SDS011;49201;53.426;10.300;2023-03-03T07:06:15;104.23;;;40.37;;
63110;SDS011;49201;53.426;10.300;2023-03-03T07:08:47;106.73;;;39.33;;
63110;SDS011;49201;53.426;10.300;2023-03-03T07:11:14;105.03;;;39.57;;
63110;SDS011;49201;53.426;10.300;2023-03-03T07:13:49;98.20;;;39.97;;
63110;SDS011;49201;53.426;10.300;2023-03-03T07:16:17;101.73;;;38.43;;
63110;SDS011;49201;53.426;10.300;2023-03-03T07:21:32;101.40;;;38.20;;
63110;SDS011;49201;53.426;10.300;2023-03-03T07:24:00;96.80;;;36.37;;
63110;SDS011;49201;53.426;10.300;2023-03-03T07:26:41;102.63;;;37.60;;
63110;SDS011;49201;53.426;10.300;2023-03-03T07:31:36;87.83;;;34.57;;
63110;SDS011;49201;53.426;10.300;2023-03-03T07:34:04;81.40;;;33.73;;
63110;SDS011;49201;53.426;10.300;2023-03-03T07:36:43;84.03;;;33.23;;
63110;SDS011;49201;53.426;10.300;2023-03-03T07:44:34;73.30;;;32.13;;
63110;SDS011;49201;53.426;10.300;2023-03-03T07:49:55;89.10;;;37.43;;
63110;SDS011;49201;53.426;10.300;2023-03-03T07:52:26;99.27;;;39.17;;
63110;SDS011;49201;53.426;10.300;2023-03-03T07:54:55;102.47;;;40.73;;
63110;SDS011;49201;53.426;10.300;2023-03-03T07:57:41;97.53;;;39.07;;
63110;SDS011;49201;53.426;10.300;2023-03-03T08:02:42;102.03;;;39.40;;
63110;SDS011;49201;53.426;10.300;2023-03-03T08:13:19;103.20;;;41.37;;
63110;SDS011;49201;53.426;10.300;2023-03-03T08:16:01;111.10;;;41.23;;
63110;SDS011;49201;53.426;10.300;2023-03-03T08:18:34;105.77;;;40.77;;
63110;SDS011;49201;53.426;10.300;2023-03-03T08:21:11;104.87;;;41.60;;
63110;SDS011;49201;53.426;10.300;2023-03-03T08:23:39;93.23;;;39.07;;
63110;SDS011;49201;53.426;10.300;2023-03-03T08:26:04;94.87;;;38.83;;
63110;SDS011;49201;53.426;10.300;2023-03-03T08:28:30;106.80;;;41.70;;
63110;SDS011;49201;53.426;10.300;2023-03-03T08:30:56;95.87;;;39.63;;
63110;SDS011;49201;53.426;10.300;2023-03-03T08:33:22;108.50;;;43.43;;
63110;SDS011;49201;53.426;10.300;2023-03-03T08:35:47;95.17;;;41.43;;
63110;SDS011;49201;53.426;10.300;2023-03-03T08:38:14;92.10;;;40.07;;
63110;SDS011;49201;53.426;10.300;2023-03-03T08:40:42;97.17;;;41.33;;
63110;SDS011;49201;53.426;10.300;2023-03-03T08:43:08;87.50;;;39.30;;
63110;SDS011;49201;53.426;10.300;2023-03-03T08:45:34;87.17;;;39.30;;
63110;SDS011;49201;53.426;10.300;2023-03-03T08:48:00;93.30;;;39.67;;
63110;SDS011;49201;53.426;10.300;2023-03-03T08:50:27;79.23;;;36.23;;
63110;SDS011;49201;53.426;10.300;2023-03-03T08:52:53;78.83;;;35.73;;
63110;SDS011;49201;53.426;10.300;2023-03-03T08:55:19;75.87;;;33.90;;
63110;SDS011;49201;53.426;10.300;2023-03-03T08:57:45;74.63;;;34.43;;
63110;SDS011;49201;53.426;10.300;2023-03-03T09:00:12;75.27;;;33.90;;
63110;SDS011;49201;53.426;10.300;2023-03-03T09:02:40;70.60;;;33.37;;
63110;SDS011;49201;53.426;10.300;2023-03-03T09:05:05;67.30;;;32.30;;
63110;SDS011;49201;53.426;10.300;2023-03-03T09:07:32;69.50;;;32.30;;
63110;SDS011;49201;53.426;10.300;2023-03-03T09:09:57;61.97;;;30.50;;
63110;SDS011;49201;53.426;10.300;2023-03-03T09:12:33;63.37;;;30.87;;
63110;SDS011;49201;53.426;10.300;2023-03-03T09:15:11;63.30;;;31.47;;
63110;SDS011;49201;53.426;10.300;2023-03-03T09:17:40;66.80;;;32.33;;
63110;SDS011;49201;53.426;10.300;2023-03-03T09:25:48;44.17;;;24.03;;
63110;SDS011;49201;53.426;10.300;2023-03-03T09:28:48;45.73;;;23.17;;
63110;SDS011;49201;53.426;10.300;2023-03-03T09:31:15;43.13;;;22.80;;
63110;SDS011;49201;53.426;10.300;2023-03-03T09:34:00;42.70;;;22.63;;
63110;SDS011;49201;53.426;10.300;2023-03-03T09:38:57;34.10;;;19.77;;
63110;SDS011;49201;53.426;10.300;2023-03-03T09:55:39;29.53;;;16.97;;
63110;SDS011;49201;53.426;10.300;2023-03-03T09:58:18;29.87;;;17.03;;
63110;SDS011;49201;53.426;10.300;2023-03-03T10:00:53;25.90;;;16.40;;
63110;SDS011;49201;53.426;10.300;2023-03-03T10:03:49;28.00;;;16.13;;
63110;SDS011;49201;53.426;10.300;2023-03-03T10:07:05;25.03;;;14.13;;
63110;SDS011;49201;53.426;10.300;2023-03-03T10:22:37;23.80;;;14.30;;
63110;SDS011;49201;53.426;10.300;2023-03-03T10:27:52;27.00;;;14.60;;
63110;SDS011;49201;53.426;10.300;2023-03-03T10:30:27;23.17;;;14.03;;
63110;SDS011;49201;53.426;10.300;2023-03-03T10:49:21;21.03;;;12.53;;
63110;SDS011;49201;53.426;10.300;2023-03-03T10:52:04;23.47;;;13.27;;
63110;SDS011;49201;53.426;10.300;2023-03-03T10:57:36;24.80;;;14.23;;
63110;SDS011;49201;53.426;10.300;2023-03-03T11:05:49;22.10;;;13.63;;
63110;SDS011;49201;53.426;10.300;2023-03-03T11:14:05;22.70;;;14.37;;
63110;SDS011;49201;53.426;10.300;2023-03-03T11:21:50;21.53;;;13.13;;
63110;SDS011;49201;53.426;10.300;2023-03-03T11:24:32;24.30;;;12.43;;
63110;SDS011;49201;53.426;10.300;2023-03-03T11:27:30;23.70;;;13.57;;
63110;SDS011;49201;53.426;10.300;2023-03-03T11:38:05;26.60;;;15.30;;
63110;SDS011;49201;53.426;10.300;2023-03-03T11:43:31;25.33;;;15.60;;
63110;SDS011;49201;53.426;10.300;2023-03-03T11:48:58;23.97;;;14.53;;
63110;SDS011;49201;53.426;10.300;2023-03-03T11:56:47;21.20;;;13.23;;
63110;SDS011;49201;53.426;10.300;2023-03-03T11:59:47;21.57;;;12.50;;
63110;SDS011;49201;53.426;10.300;2023-03-03T12:02:44;22.37;;;12.80;;
63110;SDS011;49201;53.426;10.300;2023-03-03T12:05:26;18.83;;;11.67;;
63110;SDS011;49201;53.426;10.300;2023-03-03T12:08:38;17.63;;;12.37;;
63110;SDS011;49201;53.426;10.300;2023-03-03T12:11:27;21.73;;;13.93;;
63110;SDS011;49201;53.426;10.300;2023-03-03T12:29:53;16.13;;;9.93;;
63110;SDS011;49201;53.426;10.300;2023-03-03T12:49:05;13.80;;;6.73;;
63110;SDS011;49201;53.426;10.300;2023-03-03T13:10:48;8.83;;;3.63;;
63110;SDS011;49201;53.426;10.300;2023-03-03T13:13:26;6.87;;;4.00;;
63110;SDS011;49201;53.426;10.300;2023-03-03T13:16:01;8.50;;;4.27;;
63110;SDS011;49201;53.426;10.300;2023-03-03T13:21:48;10.57;;;4.50;;
63110;SDS011;49201;53.426;10.300;2023-03-03T13:26:54;9.43;;;4.50;;
63110;SDS011;49201;53.426;10.300;2023-03-03T13:29:53;5.90;;;4.07;;
63110;SDS011;49201;53.426;10.300;2023-03-03T13:35:06;8.40;;;5.10;;
63110;SDS011;49201;53.426;10.300;2023-03-03T13:37:46;12.23;;;6.00;;
63110;SDS011;49201;53.426;10.300;2023-03-03T13:40:27;9.17;;;4.57;;
63110;SDS011;49201;53.426;10.300;2023-03-03T13:46:25;9.07;;;4.70;;
63110;SDS011;49201;53.426;10.300;2023-03-03T14:00:24;7.30;;;4.00;;
63110;SDS011;49201;53.426;10.300;2023-03-03T14:19:21;7.97;;;4.40;;
63110;SDS011;49201;53.426;10.300;2023-03-03T14:22:37;10.90;;;4.63;;
63110;SDS011;49201;53.426;10.300;2023-03-03T14:25:10;9.70;;;4.43;;
63110;SDS011;49201;53.426;10.300;2023-03-03T14:35:24;6.30;;;3.90;;
63110;SDS011;49201;53.426;10.300;2023-03-03T14:38:05;5.10;;;3.20;;
63110;SDS011;49201;53.426;10.300;2023-03-03T14:40:42;6.20;;;3.50;;
63110;SDS011;49201;53.426;10.300;2023-03-03T14:45:52;8.47;;;2.77;;
63110;SDS011;49201;53.426;10.300;2023-03-03T14:55:43;7.93;;;2.80;;
63110;SDS011;49201;53.426;10.300;2023-03-03T14:58:39;4.20;;;3.03;;
63110;SDS011;49201;53.426;10.300;2023-03-03T15:03:45;5.63;;;4.67;;
63110;SDS011;49201;53.426;10.300;2023-03-03T15:06:25;5.80;;;3.70;;
63110;SDS011;49201;53.426;10.300;2023-03-03T15:08:55;5.80;;;3.97;;
63110;SDS011;49201;53.426;10.300;2023-03-03T15:11:26;7.80;;;4.47;;
63110;SDS011;49201;53.426;10.300;2023-03-03T15:14:11;11.53;;;6.77;;
63110;SDS011;49201;53.426;10.300;2023-03-03T15:16:39;8.40;;;4.80;;
63110;SDS011;49201;53.426;10.300;2023-03-03T15:22:09;5.13;;;2.33;;
63110;SDS011;49201;53.426;10.300;2023-03-03T15:24:48;6.07;;;3.73;;
63110;SDS011;49201;53.426;10.300;2023-03-03T15:27:35;5.87;;;3.87;;
63110;SDS011;49201;53.426;10.300;2023-03-03T15:35:30;4.77;;;2.40;;
63110;SDS011;49201;53.426;10.300;2023-03-03T15:41:03;6.67;;;2.63;;
63110;SDS011;49201;53.426;10.300;2023-03-03T15:44:03;6.23;;;2.50;;
63110;SDS011;49201;53.426;10.300;2023-03-03T15:54:52;6.00;;;2.43;;
63110;SDS011;49201;53.426;10.300;2023-03-03T16:02:59;6.43;;;1.57;;
63110;SDS011;49201;53.426;10.300;2023-03-03T16:05:45;4.13;;;1.53;;
63110;SDS011;49201;53.426;10.300;2023-03-03T16:19:17;6.57;;;1.80;;
63110;SDS011;49201;53.426;10.300;2023-03-03T16:30:31;6.47;;;1.80;;
63110;SDS011;49201;53.426;10.300;2023-03-03T16:39:34;5.80;;;2.00;;
63110;SDS011;49201;53.426;10.300;2023-03-03T16:47:41;5.23;;;2.70;;
63110;SDS011;49201;53.426;10.300;2023-03-03T16:52:58;8.37;;;3.07;;
63110;SDS011;49201;53.426;10.300;2023-03-03T17:09:22;7.37;;;2.53;;
63110;SDS011;49201;53.426;10.300;2023-03-03T17:14:39;7.63;;;2.37;;
63110;SDS011;49201;53.426;10.300;2023-03-03T17:34:17;13.07;;;3.07;;
63110;SDS011;49201;53.426;10.300;2023-03-03T17:37:02;11.60;;;2.40;;
63110;SDS011;49201;53.426;10.300;2023-03-03T17:42:32;10.13;;;2.10;;
63110;SDS011;49201;53.426;10.300;2023-03-03T17:45:11;11.33;;;2.43;;
63110;SDS011;49201;53.426;10.300;2023-03-03T17:55:46;12.13;;;3.10;;
63110;SDS011;49201;53.426;10.300;2023-03-03T17:58:40;12.70;;;3.23;;
63110;SDS011;49201;53.426;10.300;2023-03-03T18:23:43;18.17;;;4.13;;
63110;SDS011;49201;53.426;10.300;2023-03-03T18:29:21;14.93;;;3.50;;
63110;SDS011;49201;53.426;10.300;2023-03-03T18:44:39;20.50;;;3.83;;
63110;SDS011;49201;53.426;10.300;2023-03-03T18:47:06;18.40;;;3.50;;
63110;SDS011;49201;53.426;10.300;2023-03-03T18:52:20;21.57;;;4.07;;
63110;SDS011;49201;53.426;10.300;2023-03-03T18:55:49;14.13;;;2.77;;
63110;SDS011;49201;53.426;10.300;2023-03-03T18:57:57;17.93;;;3.20;;
63110;SDS011;49201;53.426;10.300;2023-03-03T19:00:27;11.77;;;2.50;;
63110;SDS011;49201;53.426;10.300;2023-03-03T19:02:54;17.83;;;3.23;;
63110;SDS011;49201;53.426;10.300;2023-03-03T19:05:25;22.90;;;4.20;;
63110;SDS011;49201;53.426;10.300;2023-03-03T19:08:02;22.10;;;2.90;;
63110;SDS011;49201;53.426;10.300;2023-03-03T19:10:48;19.50;;;3.67;;
63110;SDS011;49201;53.426;10.300;2023-03-03T19:13:39;21.43;;;3.63;;
63110;SDS011;49201;53.426;10.300;2023-03-03T19:21:21;16.27;;;3.03;;
63110;SDS011;49201;53.426;10.300;2023-03-03T19:23:52;16.53;;;3.27;;
63110;SDS011;49201;53.426;10.300;2023-03-03T19:32:13;17.53;;;3.60;;
63110;SDS011;49201;53.426;10.300;2023-03-03T19:46:34;22.63;;;3.43;;
63110;SDS011;49201;53.426;10.300;2023-03-03T19:49:20;16.60;;;3.43;;
63110;SDS011;49201;53.426;10.300;2023-03-03T19:54:37;21.63;;;4.00;;
63110;SDS011;49201;53.426;10.300;2023-03-03T19:57:26;19.73;;;3.70;;
63110;SDS011;49201;53.426;10.300;2023-03-03T20:03:19;21.03;;;4.33;;
63110;SDS011;49201;53.426;10.300;2023-03-03T20:23:00;30.13;;;4.43;;
63110;SDS011;49201;53.426;10.300;2023-03-03T20:25:35;21.93;;;4.03;;
63110;SDS011;49201;53.426;10.300;2023-03-03T20:28:10;21.27;;;3.47;;
63110;SDS011;49201;53.426;10.300;2023-03-03T20:39:39;25.27;;;4.23;;
63110;SDS011;49201;53.426;10.300;2023-03-03T21:01:57;25.03;;;4.40;;
63110;SDS011;49201;53.426;10.300;2023-03-03T21:04:29;27.83;;;5.17;;
63110;SDS011;49201;53.426;10.300;2023-03-03T21:06:56;35.70;;;5.97;;
63110;SDS011;49201;53.426;10.300;2023-03-03T21:09:27;31.47;;;5.03;;
63110;SDS011;49201;53.426;10.300;2023-03-03T21:11:53;29.03;;;5.50;;
63110;SDS011;49201;53.426;10.300;2023-03-03T21:14:20;20.03;;;5.20;;
63110;SDS011;49201;53.426;10.300;2023-03-03T21:16:51;33.37;;;5.17;;
63110;SDS011;49201;53.426;10.300;2023-03-03T21:19:24;25.20;;;4.90;;
63110;SDS011;49201;53.426;10.300;2023-03-03T21:21:57;25.80;;;5.40;;
63110;SDS011;49201;53.426;10.300;2023-03-03T21:27:25;25.17;;;4.60;;
63110;SDS011;49201;53.426;10.300;2023-03-03T21:30:03;25.30;;;4.77;;
63110;SDS011;49201;53.426;10.300;2023-03-03T21:32:36;19.57;;;4.63;;
63110;SDS011;49201;53.426;10.300;2023-03-03T21:35:10;30.50;;;5.23;;
63110;SDS011;49201;53.426;10.300;2023-03-03T21:37:41;26.83;;;5.93;;
63110;SDS011;49201;53.426;10.300;2023-03-03T21:40:21;30.97;;;5.50;;
63110;SDS011;49201;53.426;10.300;2023-03-03T21:42:51;25.90;;;5.13;;
63110;SDS011;49201;53.426;10.300;2023-03-03T21:45:18;24.47;;;5.47;;
63110;SDS011;49201;53.426;10.300;2023-03-03T21:47:45;20.93;;;4.40;;
63110;SDS011;49201;53.426;10.300;2023-03-03T21:50:11;20.93;;;4.70;;
63110;SDS011;49201;53.426;10.300;2023-03-03T21:52:36;27.67;;;5.30;;
63110;SDS011;49201;53.426;10.300;2023-03-03T21:55:02;22.53;;;4.37;;
63110;SDS011;49201;53.426;10.300;2023-03-03T21:57:28;25.53;;;4.60;;
63110;SDS011;49201;53.426;10.300;2023-03-03T21:59:54;24.10;;;4.80;;
63110;SDS011;49201;53.426;10.300;2023-03-03T22:02:19;23.73;;;5.57;;
63110;SDS011;49201;53.426;10.300;2023-03-03T22:04:44;19.00;;;3.70;;
63110;SDS011;49201;53.426;10.300;2023-03-03T22:07:10;23.43;;;4.77;;
63110;SDS011;49201;53.426;10.300;2023-03-03T22:09:36;18.67;;;3.67;;
63110;SDS011;49201;53.426;10.300;2023-03-03T22:12:02;26.63;;;4.20;;
63110;SDS011;49201;53.426;10.300;2023-03-03T22:14:28;19.93;;;4.57;;
63110;SDS011;49201;53.426;10.300;2023-03-03T22:16:54;16.83;;;4.37;;
63110;SDS011;49201;53.426;10.300;2023-03-03T22:19:19;20.13;;;3.43;;